createdAt,value
2023-03-25T00:00:18.095Z,10.49
2023-03-25T00:02:48.135Z,10.50
2023-03-25T00:05:18.575Z,10.48
2023-03-25T00:07:50.420Z,10.48
2023-03-25T00:10:19.350Z,10.47
2023-03-25T00:12:47.020Z,10.48
2023-03-25T00:15:14.299Z,10.45
2023-03-25T00:17:41.510Z,10.45
2023-03-25T00:20:11.184Z,10.45
2023-03-25T00:22:40.552Z,10.42
2023-03-25T00:25:14.684Z,10.39
2023-03-25T00:27:41.894Z,10.34
2023-03-25T00:30:10.203Z,10.32
2023-03-25T00:32:37.426Z,10.31
2023-03-25T00:35:05.079Z,10.31
2023-03-25T00:37:32.295Z,10.29
2023-03-25T00:39:59.599Z,10.30
2023-03-25T00:42:26.871Z,10.29
2023-03-25T00:44:54.574Z,10.24
2023-03-25T00:47:21.903Z,10.21
2023-03-25T00:49:50.069Z,10.24
2023-03-25T00:52:17.464Z,10.23
2023-03-25T00:54:44.955Z,10.22
2023-03-25T00:57:12.357Z,10.23
2023-03-25T00:59:39.599Z,10.23
2023-03-25T01:02:06.993Z,10.24
2023-03-25T01:04:35.572Z,10.25
2023-03-25T01:07:02.848Z,10.27
2023-03-25T01:09:30.791Z,10.30
2023-03-25T01:11:58.329Z,10.30
2023-03-25T01:14:25.704Z,10.28
2023-03-25T01:16:53.344Z,10.27
2023-03-25T01:19:21.651Z,10.26
2023-03-25T01:21:49.082Z,10.22
2023-03-25T01:24:16.353Z,10.15
2023-03-25T01:26:45.274Z,10.14
2023-03-25T01:29:16.195Z,10.12
2023-03-25T01:31:44.474Z,10.12
2023-03-25T01:34:13.517Z,10.13
2023-03-25T01:36:40.808Z,10.12
2023-03-25T01:39:09.202Z,10.13
2023-03-25T01:41:49.240Z,10.12
2023-03-25T01:44:20.311Z,10.13
2023-03-25T01:46:48.758Z,10.14
2023-03-25T01:49:23.942Z,10.12
2023-03-25T01:52:00.991Z,10.11
2023-03-25T01:54:28.828Z,10.10
2023-03-25T01:56:56.741Z,10.08
2023-03-25T01:59:28.076Z,10.12
2023-03-25T02:02:00.406Z,10.10
2023-03-25T02:05:03.675Z,10.04
2023-03-25T02:07:35.670Z,10.04
2023-03-25T02:10:09.693Z,10.07
2023-03-25T02:12:36.845Z,10.04
2023-03-25T02:15:08.117Z,10.04
2023-03-25T02:18:19.493Z,10.02
2023-03-25T02:21:23.002Z,10.00
2023-03-25T02:24:41.543Z,9.94
2023-03-25T02:27:23.676Z,9.77
2023-03-25T02:30:10.562Z,9.83
2023-03-25T02:33:14.108Z,9.85
2023-03-25T02:36:10.332Z,9.85
2023-03-25T02:39:08.970Z,9.86
2023-03-25T02:42:26.672Z,9.86
2023-03-25T02:45:02.456Z,9.83
2023-03-25T02:47:41.260Z,9.84
2023-03-25T02:50:30.102Z,9.88
2023-03-25T02:53:03.890Z,9.83
2023-03-25T02:55:32.759Z,9.83
2023-03-25T02:58:04.914Z,9.80
2023-03-25T03:00:33.922Z,9.84
2023-03-25T03:03:05.402Z,9.82
2023-03-25T03:05:44.326Z,9.75
2023-03-25T03:08:30.761Z,9.75
2023-03-25T03:11:35.815Z,9.77
2023-03-25T03:14:32.956Z,9.77
2023-03-25T03:17:25.690Z,9.74
2023-03-25T03:20:44.187Z,9.73
2023-03-25T03:23:51.457Z,9.68
2023-03-25T03:26:58.507Z,9.61
2023-03-25T03:29:38.726Z,9.56
2023-03-25T03:32:20.126Z,9.48
2023-03-25T03:35:01.220Z,9.47
2023-03-25T03:37:42.050Z,9.43
2023-03-25T03:40:19.962Z,9.41
2023-03-25T03:42:55.208Z,9.36
2023-03-25T03:45:33.883Z,9.37
2023-03-25T03:48:10.904Z,9.31
2023-03-25T03:50:49.496Z,9.29
2023-03-25T03:53:29.472Z,9.24
2023-03-25T03:56:06.497Z,9.14
2023-03-25T03:58:42.480Z,9.03
2023-03-25T04:01:32.781Z,8.86
2023-03-25T04:04:06.333Z,8.47
2023-03-25T04:07:21.728Z,8.24
2023-03-25T04:10:07.758Z,8.19
2023-03-25T04:12:41.036Z,8.12
2023-03-25T04:15:09.320Z,7.99
2023-03-25T04:17:36.635Z,7.99
2023-03-25T04:20:04.662Z,7.91
2023-03-25T04:22:32.034Z,7.93
2023-03-25T04:24:59.207Z,7.97
2023-03-25T04:27:26.813Z,8.00
2023-03-25T04:29:53.953Z,7.96
2023-03-25T04:32:21.150Z,7.99
2023-03-25T04:34:48.502Z,8.04
2023-03-25T04:37:15.653Z,8.02
2023-03-25T04:39:42.835Z,8.04
2023-03-25T04:42:10.506Z,8.05
2023-03-25T04:44:37.661Z,8.09
2023-03-25T04:47:08.020Z,8.10
2023-03-25T04:49:37.587Z,8.11
2023-03-25T04:52:05.054Z,8.12
2023-03-25T04:54:32.218Z,8.17
2023-03-25T04:56:59.392Z,8.20
2023-03-25T04:59:26.642Z,8.21
2023-03-25T05:01:54.062Z,8.21
2023-03-25T05:04:21.284Z,8.23
2023-03-25T05:06:50.395Z,8.19
2023-03-25T05:09:21.684Z,8.18
2023-03-25T05:11:51.635Z,8.13
2023-03-25T05:14:21.653Z,8.15
2023-03-25T05:16:48.976Z,8.12
2023-03-25T05:19:17.396Z,8.11
2023-03-25T05:21:45.022Z,8.12
2023-03-25T05:24:13.676Z,8.13
2023-03-25T05:26:42.734Z,8.13
2023-03-25T05:29:14.513Z,8.13
2023-03-25T05:31:46.662Z,8.13
2023-03-25T05:34:14.922Z,8.17
2023-03-25T05:36:42.192Z,8.08
2023-03-25T05:39:09.845Z,8.07
2023-03-25T05:41:37.048Z,8.09
2023-03-25T05:44:06.328Z,8.09
2023-03-25T05:46:33.869Z,8.08
2023-03-25T05:49:01.388Z,8.01
2023-03-25T05:51:32.672Z,7.97
2023-03-25T05:54:00.402Z,8.01
2023-03-25T05:56:27.719Z,7.88
2023-03-25T05:58:55.357Z,7.99
2023-03-25T06:01:32.751Z,7.91
2023-03-25T06:04:03.145Z,7.98
2023-03-25T06:06:32.515Z,7.95
2023-03-25T06:08:59.809Z,7.88
2023-03-25T06:11:27.062Z,7.84
2023-03-25T06:13:54.287Z,7.90
2023-03-25T06:16:24.488Z,7.74
2023-03-25T06:18:51.995Z,7.70
2023-03-25T06:21:20.474Z,7.71
2023-03-25T06:23:47.806Z,7.69
2023-03-25T06:26:22.178Z,7.75
2023-03-25T06:28:49.583Z,7.77
2023-03-25T06:31:21.599Z,7.77
2023-03-25T06:33:50.857Z,7.77
2023-03-25T06:36:22.650Z,7.80
2023-03-25T06:38:51.389Z,7.86
2023-03-25T06:41:20.785Z,7.87
2023-03-25T06:43:49.041Z,7.87
2023-03-25T06:46:16.788Z,7.91
2023-03-25T06:48:44.279Z,7.91
2023-03-25T06:51:23.127Z,7.84
2023-03-25T06:53:50.399Z,7.91
2023-03-25T06:56:18.588Z,8.06
2023-03-25T06:58:46.151Z,8.21
2023-03-25T07:01:13.637Z,8.31
2023-03-25T07:03:40.866Z,8.37
2023-03-25T07:06:08.673Z,8.45
2023-03-25T07:08:37.239Z,8.46
2023-03-25T07:11:07.722Z,8.50
2023-03-25T07:13:35.576Z,8.55
2023-03-25T07:16:03.225Z,8.60
2023-03-25T07:18:30.955Z,8.63
2023-03-25T07:20:58.355Z,8.63
2023-03-25T07:23:26.233Z,8.68
2023-03-25T07:25:53.961Z,8.74
2023-03-25T07:28:21.198Z,8.80
2023-03-25T07:30:48.538Z,8.86
2023-03-25T07:33:15.796Z,8.95
2023-03-25T07:35:46.859Z,8.93
2023-03-25T07:38:14.293Z,8.96
2023-03-25T07:40:41.616Z,9.01
2023-03-25T07:43:08.997Z,8.98
2023-03-25T07:45:56.057Z,9.03
2023-03-25T07:48:23.272Z,9.03
2023-03-25T07:50:52.991Z,9.02
2023-03-25T07:53:21.756Z,9.02
2023-03-25T07:55:49.146Z,9.06
2023-03-25T07:58:17.664Z,9.08
2023-03-25T08:00:45.195Z,9.04
2023-03-25T08:03:14.223Z,9.09
2023-03-25T08:05:48.957Z,9.11
2023-03-25T08:08:16.502Z,9.16
2023-03-25T08:10:45.315Z,9.23
2023-03-25T08:13:13.339Z,9.06
2023-03-25T08:15:40.947Z,9.01
2023-03-25T08:18:08.521Z,8.94
2023-03-25T08:20:36.188Z,8.98
2023-03-25T08:23:03.755Z,9.07
2023-03-25T08:25:31.694Z,9.13
2023-03-25T08:27:58.974Z,9.21
2023-03-25T08:30:26.152Z,9.10
2023-03-25T08:32:53.354Z,9.10
2023-03-25T08:35:24.328Z,9.10
2023-03-25T08:37:51.861Z,9.10
2023-03-25T08:40:19.221Z,9.13
2023-03-25T08:42:46.970Z,9.26
2023-03-25T08:45:14.254Z,9.36
2023-03-25T08:47:41.410Z,9.35
2023-03-25T08:50:09.464Z,9.40
2023-03-25T08:52:36.810Z,9.45
2023-03-25T08:55:06.168Z,9.54
2023-03-25T08:57:35.209Z,9.66
2023-03-25T09:00:04.534Z,9.65
2023-03-25T09:02:31.827Z,9.80
2023-03-25T09:04:59.077Z,9.93
2023-03-25T09:07:26.353Z,9.89
2023-03-25T09:09:53.569Z,9.92
2023-03-25T09:12:20.776Z,10.01
2023-03-25T09:14:48.055Z,10.05
2023-03-25T09:17:15.352Z,10.13
2023-03-25T09:19:42.509Z,10.14
2023-03-25T09:22:09.822Z,10.26
2023-03-25T09:24:36.996Z,10.20
2023-03-25T09:27:04.436Z,10.22
2023-03-25T09:29:31.687Z,10.25
2023-03-25T09:31:59.704Z,10.31
2023-03-25T09:34:28.314Z,10.22
2023-03-25T09:36:56.511Z,10.28
2023-03-25T09:39:23.980Z,10.27
2023-03-25T09:42:42.774Z,10.29
2023-03-25T09:45:34.577Z,10.27
2023-03-25T09:48:30.038Z,10.32
2023-03-25T09:51:07.493Z,10.40
2023-03-25T09:53:56.257Z,10.51
2023-03-25T09:56:28.565Z,10.57
2023-03-25T09:59:06.908Z,10.63
2023-03-25T10:01:58.994Z,10.64
2023-03-25T10:04:44.286Z,10.71
2023-03-25T10:07:36.919Z,10.83
2023-03-25T10:10:42.471Z,10.94
2023-03-25T10:13:27.519Z,11.05
2023-03-25T10:16:19.755Z,11.11
2023-03-25T10:19:45.716Z,11.20
2023-03-25T10:22:48.119Z,11.23
2023-03-25T10:25:23.933Z,11.28
2023-03-25T10:27:52.913Z,11.30
2023-03-25T10:30:30.245Z,11.29
2023-03-25T10:33:05.983Z,11.41
2023-03-25T10:35:46.015Z,11.42
2023-03-25T10:38:22.470Z,11.54
2023-03-25T10:40:56.088Z,11.90
2023-03-25T10:43:42.672Z,12.66
2023-03-25T10:46:51.607Z,14.13
2023-03-25T10:49:26.972Z,15.99
2023-03-25T10:51:54.844Z,17.69
2023-03-25T10:54:28.524Z,18.80
2023-03-25T10:57:03.634Z,19.20
2023-03-25T11:00:03.391Z,20.17
2023-03-25T11:02:33.535Z,21.05
2023-03-25T11:05:07.560Z,21.94
2023-03-25T11:07:42.043Z,22.18
2023-03-25T11:10:30.957Z,22.42
2023-03-25T11:12:58.680Z,23.02
2023-03-25T11:15:38.525Z,22.63
2023-03-25T11:18:16.146Z,21.76
2023-03-25T11:21:02.756Z,21.05
2023-03-25T11:23:49.150Z,20.92
2023-03-25T11:26:36.338Z,20.82
2023-03-25T11:29:27.993Z,20.23
2023-03-25T11:32:32.725Z,19.40
2023-03-25T11:35:14.490Z,18.55
2023-03-25T11:37:55.881Z,17.46
2023-03-25T11:40:24.602Z,17.09
2023-03-25T11:42:58.936Z,17.73
2023-03-25T11:45:37.461Z,18.58
2023-03-25T11:48:17.270Z,19.19
2023-03-25T11:50:54.223Z,18.86
2023-03-25T11:53:26.183Z,18.78
2023-03-25T11:56:05.178Z,18.53
2023-03-25T11:58:37.021Z,17.77
2023-03-25T12:01:25.497Z,16.92
2023-03-25T12:04:05.521Z,16.53
2023-03-25T12:06:33.440Z,16.70
2023-03-25T12:09:10.411Z,16.90
2023-03-25T12:11:58.045Z,16.62
2023-03-25T12:14:36.263Z,16.30
2023-03-25T12:17:40.269Z,15.90
2023-03-25T12:21:11.038Z,15.46
2023-03-25T12:24:02.638Z,15.07
2023-03-25T12:27:11.126Z,14.78
2023-03-25T12:30:27.330Z,14.49
2023-03-25T12:33:29.503Z,14.16
2023-03-25T12:36:33.313Z,14.00
2023-03-25T12:39:29.307Z,13.86
2023-03-25T12:42:33.912Z,13.78
2023-03-25T12:45:30.597Z,13.77
2023-03-25T12:48:19.824Z,13.68
2023-03-25T12:51:19.506Z,13.56
2023-03-25T12:54:13.458Z,13.40
2023-03-25T12:57:00.636Z,13.06
2023-03-25T12:59:38.801Z,12.79
2023-03-25T13:02:15.681Z,12.31
2023-03-25T13:05:06.183Z,12.11
2023-03-25T13:07:43.074Z,11.99
2023-03-25T13:10:23.436Z,11.73
2023-03-25T13:12:56.408Z,11.93
2023-03-25T13:15:44.066Z,12.36
2023-03-25T13:18:22.915Z,12.94
2023-03-25T13:21:13.398Z,13.11
2023-03-25T13:23:47.607Z,13.57
2023-03-25T13:26:21.107Z,14.02
2023-03-25T13:28:50.993Z,14.48
2023-03-25T13:31:23.381Z,14.82
2023-03-25T13:34:28.368Z,15.30
2023-03-25T13:37:10.901Z,15.54
2023-03-25T13:40:27.913Z,15.95
2023-03-25T13:43:32.590Z,15.97
2023-03-25T13:46:19.816Z,16.02
2023-03-25T13:48:59.460Z,16.14
2023-03-25T13:51:27.132Z,16.05
2023-03-25T13:54:08.342Z,15.89
2023-03-25T13:57:03.328Z,15.93
2023-03-25T13:59:49.249Z,15.92
2023-03-25T14:02:34.144Z,15.66
2023-03-25T14:05:20.874Z,15.32
2023-03-25T14:08:29.646Z,14.87
2023-03-25T14:11:32.142Z,14.41
2023-03-25T14:14:15.813Z,14.11
2023-03-25T14:16:52.075Z,13.94
2023-03-25T14:19:42.791Z,13.85
2023-03-25T14:22:24.337Z,13.69
2023-03-25T14:24:52.331Z,13.49
2023-03-25T14:27:31.228Z,13.31
2023-03-25T14:30:18.634Z,13.17
2023-03-25T14:32:46.005Z,13.06
2023-03-25T14:35:32.082Z,13.03
2023-03-25T14:38:08.694Z,12.96
2023-03-25T14:41:02.176Z,12.98
2023-03-25T14:43:37.925Z,13.38
2023-03-25T14:46:11.173Z,13.76
2023-03-25T14:48:45.061Z,13.92
2023-03-25T14:51:27.515Z,13.76
2023-03-25T14:54:16.573Z,13.62
2023-03-25T14:57:15.973Z,14.07
2023-03-25T15:00:02.115Z,14.02
2023-03-25T15:02:33.710Z,13.94
2023-03-25T15:05:19.022Z,13.99
2023-03-25T15:07:57.857Z,14.39
2023-03-25T15:10:42.959Z,14.80
2023-03-25T15:13:21.730Z,15.18
2023-03-25T15:15:48.959Z,15.41
2023-03-25T15:18:34.909Z,15.34
2023-03-25T15:21:09.037Z,15.47
2023-03-25T15:23:46.737Z,15.40
2023-03-25T15:26:42.317Z,15.29
2023-03-25T15:29:55.518Z,15.37
2023-03-25T15:33:13.183Z,15.46
2023-03-25T15:36:41.947Z,14.86
2023-03-25T15:39:55.797Z,14.34
2023-03-25T15:42:53.532Z,14.05
2023-03-25T15:45:46.806Z,14.23
2023-03-25T15:49:27.964Z,14.75
2023-03-25T15:52:11.769Z,14.75
2023-03-25T15:54:56.871Z,14.64
2023-03-25T15:57:44.548Z,14.64
2023-03-25T16:00:27.165Z,14.52
2023-03-25T16:03:24.795Z,14.18
2023-03-25T16:06:02.623Z,13.81
2023-03-25T16:08:40.310Z,13.53
2023-03-25T16:11:19.619Z,13.29
2023-03-25T16:14:00.768Z,13.18
2023-03-25T16:16:30.934Z,13.07
2023-03-25T16:18:58.128Z,12.80
2023-03-25T16:21:30.250Z,12.63
2023-03-25T16:24:06.138Z,12.61
2023-03-25T16:26:46.490Z,12.49
2023-03-25T16:29:24.464Z,12.41
2023-03-25T16:32:02.398Z,12.32
2023-03-25T16:34:36.321Z,12.31
2023-03-25T16:37:05.949Z,12.36
2023-03-25T16:39:39.077Z,12.38
2023-03-25T16:42:19.203Z,12.31
2023-03-25T16:44:47.200Z,12.30
2023-03-25T16:47:16.839Z,12.25
2023-03-25T16:49:51.048Z,12.09
2023-03-25T16:52:25.913Z,12.02
2023-03-25T16:54:52.994Z,12.01
2023-03-25T16:57:26.247Z,12.03
2023-03-25T16:59:55.475Z,11.89
2023-03-25T17:02:38.147Z,11.74
2023-03-25T17:05:29.149Z,11.72
2023-03-25T17:08:07.747Z,11.60
2023-03-25T17:10:55.580Z,11.61
2023-03-25T17:13:39.360Z,11.62
2023-03-25T17:16:08.284Z,11.42
2023-03-25T17:18:37.983Z,11.42
2023-03-25T17:21:19.992Z,11.43
2023-03-25T17:23:47.395Z,11.45
2023-03-25T17:26:19.741Z,11.36
2023-03-25T17:28:55.806Z,11.28
2023-03-25T17:31:37.348Z,11.32
2023-03-25T17:34:18.983Z,11.30
2023-03-25T17:36:56.113Z,11.28
2023-03-25T17:39:26.792Z,11.26
2023-03-25T17:42:04.060Z,11.20
2023-03-25T17:44:39.731Z,11.13
2023-03-25T17:47:12.884Z,11.06
2023-03-25T17:49:40.375Z,11.01
2023-03-25T17:52:07.846Z,10.92
2023-03-25T17:54:36.301Z,10.85
2023-03-25T17:57:23.734Z,10.81
2023-03-25T17:59:52.097Z,10.75
2023-03-25T18:02:19.444Z,10.72
2023-03-25T18:04:46.556Z,10.65
2023-03-25T18:07:13.838Z,10.56
2023-03-25T18:09:41.285Z,10.56
2023-03-25T18:12:08.818Z,10.50
2023-03-25T18:14:36.254Z,10.42
2023-03-25T18:17:04.015Z,10.34
2023-03-25T18:19:32.344Z,10.26
2023-03-25T18:22:06.874Z,10.12
2023-03-25T18:24:41.226Z,9.98
2023-03-25T18:27:11.388Z,9.96
2023-03-25T18:29:38.972Z,9.81
2023-03-25T18:32:06.343Z,9.75
2023-03-25T18:34:33.636Z,9.69
2023-03-25T18:37:00.852Z,9.69
2023-03-25T18:39:28.752Z,9.66
2023-03-25T18:41:55.902Z,9.61
2023-03-25T18:44:23.052Z,9.56
2023-03-25T18:46:50.267Z,9.52
2023-03-25T18:49:19.916Z,9.46
2023-03-25T18:51:47.709Z,9.35
2023-03-25T18:54:16.239Z,9.32
2023-03-25T18:56:44.146Z,9.23
2023-03-25T18:59:15.950Z,9.17
2023-03-25T19:01:43.180Z,9.11
2023-03-25T19:04:10.453Z,9.00
2023-03-25T19:06:37.714Z,8.98
2023-03-25T19:09:05.988Z,8.93
2023-03-25T19:11:33.197Z,8.85
2023-03-25T19:14:00.603Z,8.78
2023-03-25T19:16:28.018Z,8.69
2023-03-25T19:18:55.250Z,8.66
2023-03-25T19:21:22.393Z,8.61
2023-03-25T19:23:50.587Z,8.55
2023-03-25T19:26:17.987Z,8.44
2023-03-25T19:28:45.339Z,8.38
2023-03-25T19:31:14.479Z,8.35
2023-03-25T19:33:41.772Z,8.24
2023-03-25T19:36:15.674Z,8.21
2023-03-25T19:38:43.203Z,8.13
2023-03-25T19:41:15.168Z,8.10
2023-03-25T19:43:42.553Z,8.05
2023-03-25T19:46:09.905Z,7.99
2023-03-25T19:48:37.418Z,7.94
2023-03-25T19:51:04.974Z,7.74
2023-03-25T19:53:32.261Z,7.83
2023-03-25T19:56:05.222Z,7.76
2023-03-25T19:58:33.749Z,7.73
2023-03-25T20:01:00.907Z,7.69
2023-03-25T20:03:28.359Z,7.62
2023-03-25T20:06:03.668Z,7.56
2023-03-25T20:08:30.943Z,7.52
2023-03-25T20:10:58.727Z,7.49
2023-03-25T20:13:26.743Z,7.44
2023-03-25T20:15:54.538Z,7.36
2023-03-25T20:18:22.062Z,7.32
2023-03-25T20:20:49.603Z,7.24
2023-03-25T20:23:17.175Z,7.22
2023-03-25T20:25:44.701Z,7.19
2023-03-25T20:28:12.212Z,7.16
2023-03-25T20:30:39.819Z,7.15
2023-03-25T20:33:07.371Z,7.04
2023-03-25T20:35:34.836Z,6.99
2023-03-25T20:38:02.213Z,6.91
2023-03-25T20:40:41.513Z,6.84
2023-03-25T20:43:11.496Z,6.83
2023-03-25T20:45:39.381Z,6.81
2023-03-25T20:48:07.033Z,6.75
2023-03-25T20:50:34.623Z,6.70
2023-03-25T20:53:02.183Z,6.68
2023-03-25T20:55:29.717Z,6.63
2023-03-25T20:57:57.274Z,6.58
2023-03-25T21:00:24.807Z,6.55
2023-03-25T21:02:52.384Z,6.54
2023-03-25T21:05:20.278Z,6.51
2023-03-25T21:07:48.009Z,6.45
2023-03-25T21:10:15.614Z,6.42
2023-03-25T21:12:44.655Z,6.40
2023-03-25T21:15:14.105Z,6.39
2023-03-25T21:17:41.888Z,6.36
2023-03-25T21:20:10.476Z,6.36
2023-03-25T21:22:43.419Z,6.37
2023-03-25T21:25:13.173Z,6.36
2023-03-25T21:27:40.671Z,6.36
2023-03-25T21:30:09.990Z,6.34
2023-03-25T21:32:39.319Z,6.29
2023-03-25T21:35:08.175Z,6.24
2023-03-25T21:37:37.376Z,6.26
2023-03-25T21:40:06.715Z,6.24
2023-03-25T21:42:34.192Z,6.19
2023-03-25T21:45:01.688Z,6.16
2023-03-25T21:47:29.233Z,6.08
2023-03-25T21:49:56.822Z,6.07
2023-03-25T21:52:24.386Z,6.04
2023-03-25T21:54:52.088Z,6.02
2023-03-25T21:57:19.862Z,6.00
2023-03-25T21:59:47.517Z,6.00
2023-03-25T22:02:15.000Z,5.99
2023-03-25T22:04:42.549Z,5.95
2023-03-25T22:07:10.089Z,5.89
2023-03-25T22:09:37.748Z,5.86
2023-03-25T22:12:05.775Z,5.84
2023-03-25T22:14:33.613Z,5.80
2023-03-25T22:17:01.198Z,5.82
2023-03-25T22:19:28.808Z,5.77
2023-03-25T22:21:56.288Z,5.76
2023-03-25T22:24:23.806Z,5.71
2023-03-25T22:26:51.493Z,5.70
2023-03-25T22:29:18.996Z,5.64
2023-03-25T22:31:46.587Z,5.68
2023-03-25T22:34:15.883Z,5.60
2023-03-25T22:36:46.388Z,5.58
2023-03-25T22:39:14.202Z,5.46
2023-03-25T22:41:41.694Z,5.43
2023-03-25T22:44:09.428Z,5.39
2023-03-25T22:46:37.282Z,5.32
2023-03-25T22:49:04.873Z,5.29
2023-03-25T22:51:32.483Z,5.28
2023-03-25T22:54:00.677Z,5.23
2023-03-25T22:56:28.165Z,5.25
2023-03-25T22:58:55.680Z,5.21
2023-03-25T23:01:25.649Z,5.14
2023-03-25T23:03:55.147Z,5.08
2023-03-25T23:06:23.563Z,5.05
2023-03-25T23:08:51.193Z,5.03
2023-03-25T23:11:21.204Z,5.03
2023-03-25T23:13:57.338Z,5.00
2023-03-25T23:16:27.724Z,4.91
2023-03-25T23:18:55.482Z,4.88
2023-03-25T23:21:26.210Z,4.89
2023-03-25T23:23:56.388Z,4.86
2023-03-25T23:26:38.411Z,4.78
2023-03-25T23:29:09.111Z,4.82
2023-03-25T23:31:38.105Z,4.78
2023-03-25T23:34:09.128Z,4.77
2023-03-25T23:36:37.515Z,4.74
2023-03-25T23:39:10.930Z,4.76
2023-03-25T23:41:38.743Z,4.63
2023-03-25T23:44:06.953Z,4.72
2023-03-25T23:46:35.036Z,4.73
2023-03-25T23:49:02.650Z,4.70
2023-03-25T23:51:35.242Z,4.68
2023-03-25T23:54:04.131Z,4.64
2023-03-25T23:56:31.557Z,4.64
2023-03-25T23:59:00.442Z,4.65
